Bedford, IN (47421)

6:48 PM EDT on August 03, 2015 (GMT -0400)
APRSWXNET | | Change Station
CLOSE
Current Station
Personal Weather Station
Location: Bedford, IN
Elevation: 685 ft
Nearby Weather Stations

Elev 685 ft 38.86 °N, 86.48 °W | Updated 21 minutes ago

Partly Cloudy
Partly Cloudy
88 °F
Feels Like 93 °F
N
9
Wind Variable Wind from WNW
Gusts 5.0 mph

Today
High -- | Low -- °F
--% Chance of Precip.
Yesterday
High -- | Low -- °F
Precip. -- in
6:48 AM 8:54 PM
Waning Gibbous, 83% visible
Pressure 29.83 in
Visibility 10.0 miles
Clouds Clear
Heat Index 93 °F
Dew Point 70 °F
Humidity 56%
Rainfall in
Snow Depth Not available.
UV 4 out of 12
Pollen 7.40 out of 12
Air Quality Not available.
Flu Activity Not available.
METAR KBMG 032153Z 30008KT 10SM CLR 31/20 A2986 RMK AO2 SLP101 T03060200

More Conditions Fewer Conditions

Pressure 29.83 in
Visibility 10.0 miles
Clouds Clear
Heat Index 93 °F
Dew Point 70 °F
Humidity 56%
Rainfall in
Snow Depth Not available.
UV 4 out of 12
Pollen 7.40 out of 12
Air Quality Not available.
Flu Activity Not available.
METAR KBMG 032153Z 30008KT 10SM CLR 31/20 A2986 RMK AO2 SLP101 T03060200

More Conditions Fewer Conditions

10-Day Weather Forecast

×

Almanac

Astronomy

Aug. 03, 2015 Rise Set
Actual Time
Civil Twilight
Nautical Twilight
Astronomical Twilight
Moon
Length of Visible Light
Length of Day
Tomorrow will be .
, % of the Moon is Illuminated

Today's Extremes

State Highs State Lows

Community

WunderPhotos

Upload Photos

1,843,785 photos uploaded!

WunderBlogs® & News

Nearby

Air Quality

  Air Quality AQ Index Pollutant
Not available.

Snow Depth

Station Depth Elevation

Earthquake Activity

City Distance Mag. Time & Date
Minimum magnitude displayed is 2.5.

Coastal Water Temperatures

Place Temperature

Stations

Nearby Weather Stations

Station Location Temp. Windchill Dew Point Humidity Wind Precip. Elev Updated Type